sensor_id;sensor_type;location;lat;lon;timestamp;P1;durP1;ratioP1;P2;durP2;ratioP2
26516;SDS011;14190;51.342;6.338;2023-04-21T00:01:51;95.72;;;56.45;;
26516;SDS011;14190;51.342;6.338;2023-04-21T00:04:20;91.32;;;54.88;;
26516;SDS011;14190;51.342;6.338;2023-04-21T00:06:48;97.55;;;54.08;;
26516;SDS011;14190;51.342;6.338;2023-04-21T00:09:15;93.78;;;55.63;;
26516;SDS011;14190;51.342;6.338;2023-04-21T00:11:43;86.35;;;52.58;;
26516;SDS011;14190;51.342;6.338;2023-04-21T00:14:11;102.00;;;60.00;;
26516;SDS011;14190;51.342;6.338;2023-04-21T00:16:38;98.75;;;55.80;;
26516;SDS011;14190;51.342;6.338;2023-04-21T00:19:06;93.00;;;55.35;;
26516;SDS011;14190;51.342;6.338;2023-04-21T00:21:33;98.72;;;57.23;;
26516;SDS011;14190;51.342;6.338;2023-04-21T00:24:01;98.33;;;57.58;;
26516;SDS011;14190;51.342;6.338;2023-04-21T00:26:28;92.30;;;53.58;;
26516;SDS011;14190;51.342;6.338;2023-04-21T00:28:56;94.05;;;53.15;;
26516;SDS011;14190;51.342;6.338;2023-04-21T00:31:24;96.97;;;54.20;;
26516;SDS011;14190;51.342;6.338;2023-04-21T00:33:51;81.97;;;50.25;;
26516;SDS011;14190;51.342;6.338;2023-04-21T00:36:21;87.20;;;52.10;;
26516;SDS011;14190;51.342;6.338;2023-04-21T00:38:50;84.00;;;50.03;;
26516;SDS011;14190;51.342;6.338;2023-04-21T00:41:17;82.90;;;46.65;;
26516;SDS011;14190;51.342;6.338;2023-04-21T00:46:30;84.92;;;49.70;;
26516;SDS011;14190;51.342;6.338;2023-04-21T00:48:58;91.90;;;49.90;;
26516;SDS011;14190;51.342;6.338;2023-04-21T00:51:26;83.17;;;49.40;;
26516;SDS011;14190;51.342;6.338;2023-04-21T00:53:55;79.58;;;49.73;;
26516;SDS011;14190;51.342;6.338;2023-04-21T00:56:22;83.75;;;51.00;;
26516;SDS011;14190;51.342;6.338;2023-04-21T00:58:50;79.95;;;49.73;;
26516;SDS011;14190;51.342;6.338;2023-04-21T01:01:20;88.67;;;49.77;;
26516;SDS011;14190;51.342;6.338;2023-04-21T01:03:48;78.05;;;48.38;;
26516;SDS011;14190;51.342;6.338;2023-04-21T01:06:16;76.50;;;47.15;;
26516;SDS011;14190;51.342;6.338;2023-04-21T01:08:46;87.22;;;48.90;;
26516;SDS011;14190;51.342;6.338;2023-04-21T01:11:15;80.85;;;47.65;;
26516;SDS011;14190;51.342;6.338;2023-04-21T01:13:42;80.03;;;47.90;;
26516;SDS011;14190;51.342;6.338;2023-04-21T01:16:14;78.95;;;46.25;;
26516;SDS011;14190;51.342;6.338;2023-04-21T01:18:38;86.67;;;48.58;;
26516;SDS011;14190;51.342;6.338;2023-04-21T01:21:06;79.42;;;47.05;;
26516;SDS011;14190;51.342;6.338;2023-04-21T01:23:34;83.42;;;48.70;;
26516;SDS011;14190;51.342;6.338;2023-04-21T01:26:01;77.53;;;46.53;;
26516;SDS011;14190;51.342;6.338;2023-04-21T01:28:28;81.85;;;47.62;;
26516;SDS011;14190;51.342;6.338;2023-04-21T01:30:56;82.80;;;47.83;;
26516;SDS011;14190;51.342;6.338;2023-04-21T01:33:23;76.47;;;45.70;;
26516;SDS011;14190;51.342;6.338;2023-04-21T01:35:50;89.85;;;47.03;;
26516;SDS011;14190;51.342;6.338;2023-04-21T01:38:18;85.50;;;47.53;;
26516;SDS011;14190;51.342;6.338;2023-04-21T01:40:46;83.27;;;45.88;;
26516;SDS011;14190;51.342;6.338;2023-04-21T01:43:16;88.00;;;47.15;;
26516;SDS011;14190;51.342;6.338;2023-04-21T01:45:43;91.50;;;47.75;;
26516;SDS011;14190;51.342;6.338;2023-04-21T01:48:11;90.20;;;48.73;;
26516;SDS011;14190;51.342;6.338;2023-04-21T01:50:38;91.28;;;49.88;;
26516;SDS011;14190;51.342;6.338;2023-04-21T01:53:08;89.15;;;49.45;;
26516;SDS011;14190;51.342;6.338;2023-04-21T01:55:35;87.80;;;49.05;;
26516;SDS011;14190;51.342;6.338;2023-04-21T01:58:04;86.90;;;48.60;;
26516;SDS011;14190;51.342;6.338;2023-04-21T02:00:32;92.60;;;49.53;;
26516;SDS011;14190;51.342;6.338;2023-04-21T02:02:59;94.75;;;51.50;;
26516;SDS011;14190;51.342;6.338;2023-04-21T02:05:27;88.72;;;49.42;;
26516;SDS011;14190;51.342;6.338;2023-04-21T02:07:54;98.03;;;53.25;;
26516;SDS011;14190;51.342;6.338;2023-04-21T02:10:22;98.58;;;52.65;;
26516;SDS011;14190;51.342;6.338;2023-04-21T02:12:49;98.42;;;50.80;;
26516;SDS011;14190;51.342;6.338;2023-04-21T02:15:17;106.97;;;54.15;;
26516;SDS011;14190;51.342;6.338;2023-04-21T02:17:44;100.25;;;50.03;;
26516;SDS011;14190;51.342;6.338;2023-04-21T02:20:12;103.05;;;54.25;;
26516;SDS011;14190;51.342;6.338;2023-04-21T02:22:39;106.65;;;54.08;;
26516;SDS011;14190;51.342;6.338;2023-04-21T02:25:06;100.65;;;52.35;;
26516;SDS011;14190;51.342;6.338;2023-04-21T02:27:34;100.02;;;52.40;;
26516;SDS011;14190;51.342;6.338;2023-04-21T02:30:02;91.72;;;51.90;;
26516;SDS011;14190;51.342;6.338;2023-04-21T02:32:30;92.88;;;49.83;;
26516;SDS011;14190;51.342;6.338;2023-04-21T02:34:57;99.32;;;51.40;;
26516;SDS011;14190;51.342;6.338;2023-04-21T02:37:25;88.22;;;50.00;;
26516;SDS011;14190;51.342;6.338;2023-04-21T02:39:52;102.67;;;52.13;;
26516;SDS011;14190;51.342;6.338;2023-04-21T02:42:20;94.47;;;51.77;;
26516;SDS011;14190;51.342;6.338;2023-04-21T02:44:47;95.62;;;51.05;;
26516;SDS011;14190;51.342;6.338;2023-04-21T02:47:14;98.52;;;52.08;;
26516;SDS011;14190;51.342;6.338;2023-04-21T02:49:42;99.00;;;52.10;;
26516;SDS011;14190;51.342;6.338;2023-04-21T02:52:11;94.87;;;51.80;;
26516;SDS011;14190;51.342;6.338;2023-04-21T02:54:40;99.25;;;50.17;;
26516;SDS011;14190;51.342;6.338;2023-04-21T02:57:07;111.85;;;54.75;;
26516;SDS011;14190;51.342;6.338;2023-04-21T02:59:35;97.02;;;52.25;;
26516;SDS011;14190;51.342;6.338;2023-04-21T03:02:02;106.85;;;53.60;;
26516;SDS011;14190;51.342;6.338;2023-04-21T03:04:30;95.15;;;52.73;;
26516;SDS011;14190;51.342;6.338;2023-04-21T03:06:57;103.27;;;54.15;;
26516;SDS011;14190;51.342;6.338;2023-04-21T03:09:25;104.05;;;52.67;;
26516;SDS011;14190;51.342;6.338;2023-04-21T03:11:52;89.55;;;50.55;;
26516;SDS011;14190;51.342;6.338;2023-04-21T03:14:19;110.92;;;55.08;;
26516;SDS011;14190;51.342;6.338;2023-04-21T03:16:47;100.90;;;52.80;;
26516;SDS011;14190;51.342;6.338;2023-04-21T03:19:14;99.05;;;54.42;;
26516;SDS011;14190;51.342;6.338;2023-04-21T03:21:42;121.33;;;55.52;;
26516;SDS011;14190;51.342;6.338;2023-04-21T03:24:09;102.92;;;53.85;;
26516;SDS011;14190;51.342;6.338;2023-04-21T03:26:37;106.12;;;53.00;;
26516;SDS011;14190;51.342;6.338;2023-04-21T03:29:06;97.45;;;52.45;;
26516;SDS011;14190;51.342;6.338;2023-04-21T03:31:33;129.18;;;55.67;;
26516;SDS011;14190;51.342;6.338;2023-04-21T03:34:01;92.72;;;49.98;;
26516;SDS011;14190;51.342;6.338;2023-04-21T03:36:28;100.42;;;51.55;;
26516;SDS011;14190;51.342;6.338;2023-04-21T03:38:56;99.75;;;52.15;;
26516;SDS011;14190;51.342;6.338;2023-04-21T03:41:24;115.85;;;55.63;;
26516;SDS011;14190;51.342;6.338;2023-04-21T03:43:51;92.47;;;49.95;;
26516;SDS011;14190;51.342;6.338;2023-04-21T03:46:19;92.80;;;48.30;;
26516;SDS011;14190;51.342;6.338;2023-04-21T03:48:47;98.40;;;52.20;;
26516;SDS011;14190;51.342;6.338;2023-04-21T03:51:14;107.78;;;54.65;;
26516;SDS011;14190;51.342;6.338;2023-04-21T03:53:41;113.55;;;54.30;;
26516;SDS011;14190;51.342;6.338;2023-04-21T03:56:09;117.67;;;55.35;;
26516;SDS011;14190;51.342;6.338;2023-04-21T03:58:36;106.78;;;53.52;;
26516;SDS011;14190;51.342;6.338;2023-04-21T04:01:04;123.92;;;54.40;;
26516;SDS011;14190;51.342;6.338;2023-04-21T04:03:33;129.87;;;55.73;;
26516;SDS011;14190;51.342;6.338;2023-04-21T04:06:00;103.85;;;52.43;;
26516;SDS011;14190;51.342;6.338;2023-04-21T04:08:29;124.75;;;58.52;;
26516;SDS011;14190;51.342;6.338;2023-04-21T04:10:56;112.75;;;54.63;;
26516;SDS011;14190;51.342;6.338;2023-04-21T04:13:24;151.47;;;59.35;;
26516;SDS011;14190;51.342;6.338;2023-04-21T04:15:52;111.60;;;58.00;;
26516;SDS011;14190;51.342;6.338;2023-04-21T04:18:19;114.65;;;57.60;;
26516;SDS011;14190;51.342;6.338;2023-04-21T04:20:47;121.50;;;58.52;;
26516;SDS011;14190;51.342;6.338;2023-04-21T04:23:15;115.95;;;57.62;;
26516;SDS011;14190;51.342;6.338;2023-04-21T04:25:42;123.38;;;57.95;;
26516;SDS011;14190;51.342;6.338;2023-04-21T04:28:09;111.65;;;56.25;;
26516;SDS011;14190;51.342;6.338;2023-04-21T04:30:38;114.65;;;55.30;;
26516;SDS011;14190;51.342;6.338;2023-04-21T04:33:05;119.53;;;55.40;;
26516;SDS011;14190;51.342;6.338;2023-04-21T04:35:32;150.87;;;60.83;;
26516;SDS011;14190;51.342;6.338;2023-04-21T04:38:01;100.75;;;51.53;;
26516;SDS011;14190;51.342;6.338;2023-04-21T04:40:29;107.80;;;53.30;;
26516;SDS011;14190;51.342;6.338;2023-04-21T04:42:58;105.67;;;53.73;;
26516;SDS011;14190;51.342;6.338;2023-04-21T04:45:27;99.58;;;51.85;;
26516;SDS011;14190;51.342;6.338;2023-04-21T04:47:56;109.15;;;52.58;;
26516;SDS011;14190;51.342;6.338;2023-04-21T04:50:24;93.78;;;48.85;;
26516;SDS011;14190;51.342;6.338;2023-04-21T04:52:51;98.58;;;49.35;;
26516;SDS011;14190;51.342;6.338;2023-04-21T04:55:19;109.25;;;50.05;;
26516;SDS011;14190;51.342;6.338;2023-04-21T04:57:47;92.57;;;48.02;;
26516;SDS011;14190;51.342;6.338;2023-04-21T05:00:15;84.32;;;46.75;;
26516;SDS011;14190;51.342;6.338;2023-04-21T05:02:42;101.62;;;48.75;;
26516;SDS011;14190;51.342;6.338;2023-04-21T05:05:10;89.10;;;48.45;;
26516;SDS011;14190;51.342;6.338;2023-04-21T05:07:38;94.55;;;48.98;;
26516;SDS011;14190;51.342;6.338;2023-04-21T05:10:05;78.65;;;44.60;;
26516;SDS011;14190;51.342;6.338;2023-04-21T05:12:33;93.62;;;46.05;;
26516;SDS011;14190;51.342;6.338;2023-04-21T05:15:00;88.22;;;46.35;;
26516;SDS011;14190;51.342;6.338;2023-04-21T05:17:28;107.85;;;50.52;;
26516;SDS011;14190;51.342;6.338;2023-04-21T05:19:56;100.53;;;51.05;;
26516;SDS011;14190;51.342;6.338;2023-04-21T05:22:23;103.45;;;53.63;;
26516;SDS011;14190;51.342;6.338;2023-04-21T05:24:51;109.12;;;53.15;;
26516;SDS011;14190;51.342;6.338;2023-04-21T05:27:19;118.17;;;54.00;;
26516;SDS011;14190;51.342;6.338;2023-04-21T05:29:48;92.42;;;48.95;;
26516;SDS011;14190;51.342;6.338;2023-04-21T05:32:15;90.47;;;47.45;;
26516;SDS011;14190;51.342;6.338;2023-04-21T05:34:42;84.90;;;46.15;;
26516;SDS011;14190;51.342;6.338;2023-04-21T05:37:10;89.65;;;45.80;;
26516;SDS011;14190;51.342;6.338;2023-04-21T05:39:37;90.40;;;46.60;;
26516;SDS011;14190;51.342;6.338;2023-04-21T05:42:05;88.37;;;46.95;;
26516;SDS011;14190;51.342;6.338;2023-04-21T05:44:32;90.50;;;48.10;;
26516;SDS011;14190;51.342;6.338;2023-04-21T05:47:00;94.30;;;47.98;;
26516;SDS011;14190;51.342;6.338;2023-04-21T05:49:27;93.65;;;46.42;;
26516;SDS011;14190;51.342;6.338;2023-04-21T05:51:54;91.45;;;48.38;;
26516;SDS011;14190;51.342;6.338;2023-04-21T05:54:22;87.67;;;46.40;;
26516;SDS011;14190;51.342;6.338;2023-04-21T05:56:49;90.42;;;45.83;;
26516;SDS011;14190;51.342;6.338;2023-04-21T05:59:17;104.78;;;49.10;;
26516;SDS011;14190;51.342;6.338;2023-04-21T06:01:44;85.90;;;45.88;;
26516;SDS011;14190;51.342;6.338;2023-04-21T06:04:11;90.45;;;48.10;;
26516;SDS011;14190;51.342;6.338;2023-04-21T06:06:39;89.77;;;46.15;;
26516;SDS011;14190;51.342;6.338;2023-04-21T06:09:06;92.53;;;48.75;;
26516;SDS011;14190;51.342;6.338;2023-04-21T06:11:33;82.90;;;47.75;;
26516;SDS011;14190;51.342;6.338;2023-04-21T06:14:01;83.65;;;46.80;;
26516;SDS011;14190;51.342;6.338;2023-04-21T06:16:28;89.07;;;46.92;;
26516;SDS011;14190;51.342;6.338;2023-04-21T06:18:57;85.40;;;48.50;;
26516;SDS011;14190;51.342;6.338;2023-04-21T06:21:24;89.90;;;48.38;;
26516;SDS011;14190;51.342;6.338;2023-04-21T06:23:52;91.30;;;47.65;;
26516;SDS011;14190;51.342;6.338;2023-04-21T06:26:19;89.77;;;47.50;;
26516;SDS011;14190;51.342;6.338;2023-04-21T06:28:46;86.87;;;48.58;;
26516;SDS011;14190;51.342;6.338;2023-04-21T06:31:14;93.05;;;49.03;;
26516;SDS011;14190;51.342;6.338;2023-04-21T06:33:41;85.30;;;46.45;;
26516;SDS011;14190;51.342;6.338;2023-04-21T06:36:09;87.37;;;48.87;;
26516;SDS011;14190;51.342;6.338;2023-04-21T06:38:36;80.60;;;46.23;;
26516;SDS011;14190;51.342;6.338;2023-04-21T06:41:05;78.15;;;45.03;;
26516;SDS011;14190;51.342;6.338;2023-04-21T06:43:32;82.35;;;46.70;;
26516;SDS011;14190;51.342;6.338;2023-04-21T06:46:00;77.12;;;44.85;;
26516;SDS011;14190;51.342;6.338;2023-04-21T06:48:27;80.50;;;44.42;;
26516;SDS011;14190;51.342;6.338;2023-04-21T06:50:55;69.32;;;40.52;;
26516;SDS011;14190;51.342;6.338;2023-04-21T06:53:23;77.40;;;43.70;;
26516;SDS011;14190;51.342;6.338;2023-04-21T06:55:50;70.05;;;39.35;;
26516;SDS011;14190;51.342;6.338;2023-04-21T06:58:18;69.95;;;41.35;;
26516;SDS011;14190;51.342;6.338;2023-04-21T07:00:46;69.80;;;40.58;;
26516;SDS011;14190;51.342;6.338;2023-04-21T07:03:13;68.12;;;41.37;;
26516;SDS011;14190;51.342;6.338;2023-04-21T07:05:40;60.43;;;38.00;;
26516;SDS011;14190;51.342;6.338;2023-04-21T07:08:08;68.90;;;40.08;;
26516;SDS011;14190;51.342;6.338;2023-04-21T07:10:35;61.70;;;39.27;;
26516;SDS011;14190;51.342;6.338;2023-04-21T07:13:03;62.65;;;39.00;;
26516;SDS011;14190;51.342;6.338;2023-04-21T07:15:30;58.35;;;37.03;;
26516;SDS011;14190;51.342;6.338;2023-04-21T07:17:57;58.80;;;39.03;;
26516;SDS011;14190;51.342;6.338;2023-04-21T07:20:25;61.13;;;39.53;;
26516;SDS011;14190;51.342;6.338;2023-04-21T07:22:52;64.25;;;39.20;;
26516;SDS011;14190;51.342;6.338;2023-04-21T07:25:20;59.55;;;38.80;;
26516;SDS011;14190;51.342;6.338;2023-04-21T07:27:47;63.30;;;38.88;;
26516;SDS011;14190;51.342;6.338;2023-04-21T07:30:14;63.13;;;38.25;;
26516;SDS011;14190;51.342;6.338;2023-04-21T07:32:42;59.53;;;37.28;;
26516;SDS011;14190;51.342;6.338;2023-04-21T07:35:09;62.58;;;38.80;;
26516;SDS011;14190;51.342;6.338;2023-04-21T07:37:41;61.98;;;39.63;;
26516;SDS011;14190;51.342;6.338;2023-04-21T07:40:07;55.95;;;36.95;;
26516;SDS011;14190;51.342;6.338;2023-04-21T07:42:34;58.30;;;37.78;;
26516;SDS011;14190;51.342;6.338;2023-04-21T07:45:02;58.05;;;38.60;;
26516;SDS011;14190;51.342;6.338;2023-04-21T07:47:30;58.33;;;39.40;;
26516;SDS011;14190;51.342;6.338;2023-04-21T07:49:57;63.85;;;39.60;;
26516;SDS011;14190;51.342;6.338;2023-04-21T07:52:24;58.75;;;39.27;;
26516;SDS011;14190;51.342;6.338;2023-04-21T07:54:52;53.90;;;37.85;;
26516;SDS011;14190;51.342;6.338;2023-04-21T07:57:19;56.00;;;38.35;;
26516;SDS011;14190;51.342;6.338;2023-04-21T07:59:46;62.55;;;38.85;;
26516;SDS011;14190;51.342;6.338;2023-04-21T08:02:14;55.58;;;36.23;;
26516;SDS011;14190;51.342;6.338;2023-04-21T08:04:41;54.93;;;35.50;;
26516;SDS011;14190;51.342;6.338;2023-04-21T08:07:09;54.80;;;37.15;;
26516;SDS011;14190;51.342;6.338;2023-04-21T08:09:38;56.00;;;37.60;;
26516;SDS011;14190;51.342;6.338;2023-04-21T08:12:05;53.87;;;36.15;;
26516;SDS011;14190;51.342;6.338;2023-04-21T08:14:33;52.58;;;36.42;;
26516;SDS011;14190;51.342;6.338;2023-04-21T08:17:00;52.70;;;36.75;;
26516;SDS011;14190;51.342;6.338;2023-04-21T08:19:27;56.65;;;37.00;;
26516;SDS011;14190;51.342;6.338;2023-04-21T08:21:55;58.52;;;39.35;;
26516;SDS011;14190;51.342;6.338;2023-04-21T08:24:23;51.80;;;37.08;;
26516;SDS011;14190;51.342;6.338;2023-04-21T08:26:50;56.60;;;37.73;;
26516;SDS011;14190;51.342;6.338;2023-04-21T08:29:18;52.45;;;36.45;;
26516;SDS011;14190;51.342;6.338;2023-04-21T08:31:45;51.98;;;35.35;;
26516;SDS011;14190;51.342;6.338;2023-04-21T08:34:12;53.65;;;38.98;;
26516;SDS011;14190;51.342;6.338;2023-04-21T08:36:40;56.83;;;38.73;;
26516;SDS011;14190;51.342;6.338;2023-04-21T08:39:08;54.88;;;38.15;;
26516;SDS011;14190;51.342;6.338;2023-04-21T08:41:37;61.85;;;41.13;;
26516;SDS011;14190;51.342;6.338;2023-04-21T08:44:05;57.83;;;39.58;;
26516;SDS011;14190;51.342;6.338;2023-04-21T08:46:33;55.10;;;39.18;;
26516;SDS011;14190;51.342;6.338;2023-04-21T08:49:01;60.15;;;39.70;;
26516;SDS011;14190;51.342;6.338;2023-04-21T08:51:29;62.15;;;39.20;;
26516;SDS011;14190;51.342;6.338;2023-04-21T08:54:02;60.08;;;38.75;;
26516;SDS011;14190;51.342;6.338;2023-04-21T08:56:26;55.23;;;37.35;;
26516;SDS011;14190;51.342;6.338;2023-04-21T08:58:53;61.13;;;39.23;;
26516;SDS011;14190;51.342;6.338;2023-04-21T09:01:21;58.17;;;37.48;;
26516;SDS011;14190;51.342;6.338;2023-04-21T09:03:48;52.38;;;36.23;;
26516;SDS011;14190;51.342;6.338;2023-04-21T09:06:15;53.10;;;35.75;;
26516;SDS011;14190;51.342;6.338;2023-04-21T09:08:43;55.10;;;37.98;;
26516;SDS011;14190;51.342;6.338;2023-04-21T09:11:12;51.80;;;34.67;;
26516;SDS011;14190;51.342;6.338;2023-04-21T09:13:40;52.70;;;35.88;;
26516;SDS011;14190;51.342;6.338;2023-04-21T09:16:19;52.95;;;34.55;;
26516;SDS011;14190;51.342;6.338;2023-04-21T09:18:38;57.00;;;37.50;;
26516;SDS011;14190;51.342;6.338;2023-04-21T09:21:06;49.13;;;33.45;;
26516;SDS011;14190;51.342;6.338;2023-04-21T09:26:09;50.00;;;34.60;;
26516;SDS011;14190;51.342;6.338;2023-04-21T09:28:41;42.67;;;29.87;;
26516;SDS011;14190;51.342;6.338;2023-04-21T09:31:18;42.55;;;30.52;;
26516;SDS011;14190;51.342;6.338;2023-04-21T09:33:50;43.87;;;30.62;;
26516;SDS011;14190;51.342;6.338;2023-04-21T09:36:19;44.35;;;29.23;;
26516;SDS011;14190;51.342;6.338;2023-04-21T09:38:53;42.55;;;30.35;;
26516;SDS011;14190;51.342;6.338;2023-04-21T09:41:16;44.57;;;28.97;;
26516;SDS011;14190;51.342;6.338;2023-04-21T09:43:44;41.02;;;27.70;;
26516;SDS011;14190;51.342;6.338;2023-04-21T09:46:11;44.60;;;28.80;;
26516;SDS011;14190;51.342;6.338;2023-04-21T09:48:40;38.50;;;27.65;;
26516;SDS011;14190;51.342;6.338;2023-04-21T09:51:08;41.65;;;27.67;;
26516;SDS011;14190;51.342;6.338;2023-04-21T09:53:37;39.85;;;27.32;;
26516;SDS011;14190;51.342;6.338;2023-04-21T09:56:06;38.80;;;27.82;;
26516;SDS011;14190;51.342;6.338;2023-04-21T09:58:35;37.60;;;25.90;;
26516;SDS011;14190;51.342;6.338;2023-04-21T10:01:03;36.60;;;26.65;;
26516;SDS011;14190;51.342;6.338;2023-04-21T10:03:31;38.35;;;25.40;;
26516;SDS011;14190;51.342;6.338;2023-04-21T10:05:58;37.17;;;25.30;;
26516;SDS011;14190;51.342;6.338;2023-04-21T10:08:26;36.15;;;24.63;;
26516;SDS011;14190;51.342;6.338;2023-04-21T10:10:54;36.50;;;26.23;;
26516;SDS011;14190;51.342;6.338;2023-04-21T10:13:21;37.60;;;25.30;;
26516;SDS011;14190;51.342;6.338;2023-04-21T10:15:49;34.80;;;25.02;;
26516;SDS011;14190;51.342;6.338;2023-04-21T10:18:19;36.83;;;23.85;;
26516;SDS011;14190;51.342;6.338;2023-04-21T10:20:54;35.35;;;25.68;;
26516;SDS011;14190;51.342;6.338;2023-04-21T10:23:30;35.50;;;25.40;;
26516;SDS011;14190;51.342;6.338;2023-04-21T10:25:59;36.53;;;25.40;;
26516;SDS011;14190;51.342;6.338;2023-04-21T10:28:37;37.80;;;25.77;;
26516;SDS011;14190;51.342;6.338;2023-04-21T10:31:13;37.83;;;25.57;;
26516;SDS011;14190;51.342;6.338;2023-04-21T10:33:22;35.45;;;25.10;;
26516;SDS011;14190;51.342;6.338;2023-04-21T10:35:59;40.58;;;26.37;;
26516;SDS011;14190;51.342;6.338;2023-04-21T10:38:53;39.75;;;26.33;;
26516;SDS011;14190;51.342;6.338;2023-04-21T10:41:07;34.15;;;24.43;;
26516;SDS011;14190;51.342;6.338;2023-04-21T10:43:41;39.35;;;25.25;;
26516;SDS011;14190;51.342;6.338;2023-04-21T10:46:35;40.60;;;26.52;;
26516;SDS011;14190;51.342;6.338;2023-04-21T10:49:04;45.63;;;28.75;;
26516;SDS011;14190;51.342;6.338;2023-04-21T10:51:32;42.73;;;27.02;;
26516;SDS011;14190;51.342;6.338;2023-04-21T10:53:59;37.28;;;26.12;;
26516;SDS011;14190;51.342;6.338;2023-04-21T10:56:28;41.55;;;26.50;;
26516;SDS011;14190;51.342;6.338;2023-04-21T10:58:56;39.75;;;26.07;;
26516;SDS011;14190;51.342;6.338;2023-04-21T11:01:24;38.48;;;25.97;;
26516;SDS011;14190;51.342;6.338;2023-04-21T11:03:52;31.00;;;22.73;;
26516;SDS011;14190;51.342;6.338;2023-04-21T11:06:21;34.45;;;24.50;;
26516;SDS011;14190;51.342;6.338;2023-04-21T11:08:54;32.95;;;22.95;;
26516;SDS011;14190;51.342;6.338;2023-04-21T11:11:23;30.57;;;22.10;;
26516;SDS011;14190;51.342;6.338;2023-04-21T11:13:52;38.38;;;25.85;;
26516;SDS011;14190;51.342;6.338;2023-04-21T11:16:19;33.83;;;21.77;;
26516;SDS011;14190;51.342;6.338;2023-04-21T11:18:46;30.45;;;21.40;;
26516;SDS011;14190;51.342;6.338;2023-04-21T11:21:17;29.90;;;21.82;;
26516;SDS011;14190;51.342;6.338;2023-04-21T11:23:47;29.82;;;20.72;;
26516;SDS011;14190;51.342;6.338;2023-04-21T11:26:15;33.28;;;21.80;;
26516;SDS011;14190;51.342;6.338;2023-04-21T11:28:46;32.98;;;22.27;;
26516;SDS011;14190;51.342;6.338;2023-04-21T11:31:11;26.65;;;19.17;;
26516;SDS011;14190;51.342;6.338;2023-04-21T11:33:39;25.95;;;18.90;;
26516;SDS011;14190;51.342;6.338;2023-04-21T11:36:06;28.15;;;20.25;;
26516;SDS011;14190;51.342;6.338;2023-04-21T11:38:37;30.48;;;21.27;;
26516;SDS011;14190;51.342;6.338;2023-04-21T11:41:05;25.15;;;19.02;;
26516;SDS011;14190;51.342;6.338;2023-04-21T11:43:33;27.50;;;19.55;;
26516;SDS011;14190;51.342;6.338;2023-04-21T11:46:10;27.58;;;19.85;;
26516;SDS011;14190;51.342;6.338;2023-04-21T11:48:38;32.38;;;20.95;;
26516;SDS011;14190;51.342;6.338;2023-04-21T11:51:05;35.58;;;24.37;;
26516;SDS011;14190;51.342;6.338;2023-04-21T11:53:34;30.97;;;23.15;;
26516;SDS011;14190;51.342;6.338;2023-04-21T11:56:01;28.42;;;20.70;;
26516;SDS011;14190;51.342;6.338;2023-04-21T11:58:30;29.57;;;21.05;;
26516;SDS011;14190;51.342;6.338;2023-04-21T12:00:57;28.83;;;21.65;;
26516;SDS011;14190;51.342;6.338;2023-04-21T12:03:24;35.45;;;23.02;;
26516;SDS011;14190;51.342;6.338;2023-04-21T12:05:54;37.33;;;22.77;;
26516;SDS011;14190;51.342;6.338;2023-04-21T12:08:21;30.10;;;22.77;;
26516;SDS011;14190;51.342;6.338;2023-04-21T12:10:48;32.25;;;23.20;;
26516;SDS011;14190;51.342;6.338;2023-04-21T12:13:22;33.00;;;23.47;;
26516;SDS011;14190;51.342;6.338;2023-04-21T12:15:52;29.55;;;22.52;;
26516;SDS011;14190;51.342;6.338;2023-04-21T12:18:21;34.13;;;25.40;;
26516;SDS011;14190;51.342;6.338;2023-04-21T12:20:51;35.98;;;24.00;;
26516;SDS011;14190;51.342;6.338;2023-04-21T12:23:21;31.87;;;24.55;;
26516;SDS011;14190;51.342;6.338;2023-04-21T12:25:49;32.78;;;23.70;;
26516;SDS011;14190;51.342;6.338;2023-04-21T12:28:17;29.48;;;20.57;;
26516;SDS011;14190;51.342;6.338;2023-04-21T12:30:44;37.03;;;25.10;;
26516;SDS011;14190;51.342;6.338;2023-04-21T12:33:12;34.73;;;24.30;;
26516;SDS011;14190;51.342;6.338;2023-04-21T12:35:39;33.18;;;24.87;;
26516;SDS011;14190;51.342;6.338;2023-04-21T12:38:06;36.08;;;24.43;;
26516;SDS011;14190;51.342;6.338;2023-04-21T12:40:34;34.20;;;25.70;;
26516;SDS011;14190;51.342;6.338;2023-04-21T12:43:02;35.65;;;25.00;;
26516;SDS011;14190;51.342;6.338;2023-04-21T12:45:29;38.73;;;25.95;;
26516;SDS011;14190;51.342;6.338;2023-04-21T12:47:58;36.77;;;25.90;;
26516;SDS011;14190;51.342;6.338;2023-04-21T12:50:26;38.70;;;27.62;;
26516;SDS011;14190;51.342;6.338;2023-04-21T12:52:53;41.10;;;28.30;;
26516;SDS011;14190;51.342;6.338;2023-04-21T12:55:21;38.45;;;27.82;;
26516;SDS011;14190;51.342;6.338;2023-04-21T12:57:49;39.73;;;29.75;;
26516;SDS011;14190;51.342;6.338;2023-04-21T13:00:16;39.23;;;29.63;;
26516;SDS011;14190;51.342;6.338;2023-04-21T13:02:43;46.50;;;29.23;;
26516;SDS011;14190;51.342;6.338;2023-04-21T13:05:11;39.75;;;29.42;;
26516;SDS011;14190;51.342;6.338;2023-04-21T13:07:40;41.30;;;30.00;;
26516;SDS011;14190;51.342;6.338;2023-04-21T13:10:07;40.50;;;29.50;;
26516;SDS011;14190;51.342;6.338;2023-04-21T13:12:35;42.95;;;29.48;;
26516;SDS011;14190;51.342;6.338;2023-04-21T13:15:02;40.25;;;29.57;;
26516;SDS011;14190;51.342;6.338;2023-04-21T13:17:30;41.68;;;25.68;;
26516;SDS011;14190;51.342;6.338;2023-04-21T13:19:58;38.88;;;25.10;;
26516;SDS011;14190;51.342;6.338;2023-04-21T13:22:25;28.47;;;23.65;;
26516;SDS011;14190;51.342;6.338;2023-04-21T13:24:52;34.10;;;23.90;;
26516;SDS011;14190;51.342;6.338;2023-04-21T13:27:20;31.12;;;23.32;;
26516;SDS011;14190;51.342;6.338;2023-04-21T13:29:47;36.03;;;26.02;;
26516;SDS011;14190;51.342;6.338;2023-04-21T13:32:15;33.85;;;25.23;;
26516;SDS011;14190;51.342;6.338;2023-04-21T13:34:42;31.60;;;23.92;;
26516;SDS011;14190;51.342;6.338;2023-04-21T13:37:09;30.02;;;20.75;;
26516;SDS011;14190;51.342;6.338;2023-04-21T13:39:38;23.75;;;17.40;;
26516;SDS011;14190;51.342;6.338;2023-04-21T13:42:06;26.27;;;19.30;;
26516;SDS011;14190;51.342;6.338;2023-04-21T13:44:33;23.20;;;16.90;;
26516;SDS011;14190;51.342;6.338;2023-04-21T13:47:01;20.45;;;13.53;;
26516;SDS011;14190;51.342;6.338;2023-04-21T13:49:28;21.17;;;14.63;;
26516;SDS011;14190;51.342;6.338;2023-04-21T13:51:56;19.57;;;13.95;;
26516;SDS011;14190;51.342;6.338;2023-04-21T13:54:23;20.62;;;16.55;;
26516;SDS011;14190;51.342;6.338;2023-04-21T13:56:50;23.87;;;18.35;;
26516;SDS011;14190;51.342;6.338;2023-04-21T13:59:18;20.65;;;17.42;;
26516;SDS011;14190;51.342;6.338;2023-04-21T14:01:46;20.32;;;15.40;;
26516;SDS011;14190;51.342;6.338;2023-04-21T14:04:13;22.62;;;16.42;;
26516;SDS011;14190;51.342;6.338;2023-04-21T14:06:41;19.98;;;15.05;;
26516;SDS011;14190;51.342;6.338;2023-04-21T14:09:08;15.32;;;12.60;;
26516;SDS011;14190;51.342;6.338;2023-04-21T14:11:36;17.67;;;12.20;;
26516;SDS011;14190;51.342;6.338;2023-04-21T14:14:03;13.68;;;11.25;;
26516;SDS011;14190;51.342;6.338;2023-04-21T14:16:31;17.55;;;12.13;;
26516;SDS011;14190;51.342;6.338;2023-04-21T14:18:58;16.52;;;12.15;;
26516;SDS011;14190;51.342;6.338;2023-04-21T14:21:26;17.25;;;12.65;;
26516;SDS011;14190;51.342;6.338;2023-04-21T14:23:53;16.85;;;13.32;;
26516;SDS011;14190;51.342;6.338;2023-04-21T14:26:21;17.12;;;14.07;;
26516;SDS011;14190;51.342;6.338;2023-04-21T14:28:48;17.95;;;12.58;;